Time;durP1;ratioP1;P1;durP2;ratioP2;P2;SDS_P1;SDS_P2;PMS_P1;PMS_P2;Temp;Humidity;BMP_temperature;BMP_pressure;BME280_temperature;BME280_humidity;BME280_pressure;Samples;Min_cycle;Max_cycle;Signal;HPM_P1;HPM_P2
2021/06/13 00:02:16;;;;;;;7.90;5.17;;;14.70;83.90;;;;;;5096144;28;20109;-55
2021/06/13 00:05:00;;;;;;;14.07;5.57;;;14.80;83.60;;;;;;5096508;28;20055;-58
2021/06/13 00:07:45;;;;;;;9.30;4.53;;;14.80;83.60;;;;;;5095186;28;20077;-59
2021/06/13 00:10:29;;;;;;;9.83;5.20;;;14.70;84.10;;;;;;5096144;28;20047;-58
2021/06/13 00:13:13;;;;;;;11.32;5.03;;;14.70;84.10;;;;;;5096134;28;20609;-58
2021/06/13 00:15:57;;;;;;;14.10;4.90;;;14.60;84.50;;;;;;5095916;28;20089;-55
2021/06/13 00:18:42;;;;;;;11.15;5.20;;;14.60;84.40;;;;;;5095830;28;20038;-56
2021/06/13 00:21:26;;;;;;;12.45;5.22;;;14.40;85.20;;;;;;5095910;28;20039;-57
2021/06/13 00:24:11;;;;;;;13.25;5.57;;;14.40;85.30;;;;;;5095849;28;20031;-53
2021/06/13 00:26:55;;;;;;;12.95;5.18;;;14.50;85.20;;;;;;5094955;28;20510;-62
2021/06/13 00:29:39;;;;;;;10.13;5.20;;;14.40;85.50;;;;;;5088045;28;20035;-54
2021/06/13 00:32:23;;;;;;;7.63;4.93;;;14.50;85.80;;;;;;5095443;28;20043;-57
2021/06/13 00:35:09;;;;;;;11.90;5.63;;;14.50;85.30;;;;;;5095190;28;20406;-56
2021/06/13 00:37:53;;;;;;;12.18;5.32;;;14.50;85.40;;;;;;5095007;28;20411;-57
2021/06/13 00:40:37;;;;;;;10.55;5.35;;;14.50;85.40;;;;;;5095333;28;20473;-57
2021/06/13 00:43:22;;;;;;;9.40;5.47;;;14.50;85.40;;;;;;5095523;28;20070;-55
2021/06/13 00:46:06;;;;;;;11.13;4.90;;;14.40;85.40;;;;;;5093890;28;20030;-56
2021/06/13 00:48:50;;;;;;;12.70;5.87;;;14.30;85.90;;;;;;5065088;28;20077;-56
2021/06/13 00:51:34;;;;;;;9.70;4.70;;;14.30;86.30;;;;;;5095760;28;20254;-56
2021/06/13 00:54:19;;;;;;;9.75;5.20;;;14.30;86.00;;;;;;5095333;28;20139;-57
2021/06/13 00:57:03;;;;;;;10.52;5.10;;;14.20;86.70;;;;;;5094822;28;20054;-54
2021/06/13 00:59:47;;;;;;;11.20;5.45;;;14.00;86.90;;;;;;5095229;28;20135;-58
2021/06/13 01:02:31;;;;;;;9.93;5.38;;;14.00;86.80;;;;;;5095076;28;20031;-57
2021/06/13 01:05:16;;;;;;;11.20;5.78;;;14.20;86.70;;;;;;5094790;28;20086;-60
2021/06/13 01:08:03;;;;;;;8.98;4.90;;;14.10;86.60;;;;;;5094118;28;20112;-56
2021/06/13 01:11:12;;;;;;;10.38;4.93;;;14.20;86.70;;;;;;5098016;28;20080;-59
2021/06/13 01:14:07;;;;;;;12.60;5.38;;;14.10;87.00;;;;;;5105660;28;20020;-54
2021/06/13 01:17:13;;;;;;;14.77;5.63;;;14.00;87.60;;;;;;5111530;28;20034;-54
2021/06/13 01:20:08;;;;;;;11.07;5.38;;;13.70;88.70;;;;;;5096915;28;20108;-58
2021/06/13 01:23:37;;;;;;;14.23;6.03;;;13.80;88.30;;;;;;5086458;28;20526;-52
2021/06/13 01:26:51;;;;;;;12.30;5.85;;;13.70;89.00;;;;;;5065338;28;20079;-55
2021/06/13 01:29:40;;;;;;;13.95;5.45;;;13.70;89.10;;;;;;5079804;28;20668;-52
2021/06/13 01:32:31;;;;;;;16.05;5.55;;;13.50;89.70;;;;;;5094144;28;20093;-56
2021/06/13 01:35:20;;;;;;;12.07;5.60;;;13.60;89.70;;;;;;5091654;28;20525;-55
2021/06/13 01:38:05;;;;;;;11.30;5.50;;;13.70;89.60;;;;;;5093618;28;20046;-59
2021/06/13 01:40:50;;;;;;;15.70;6.05;;;13.70;89.40;;;;;;5094163;28;20053;-59
2021/06/13 01:43:35;;;;;;;11.82;5.72;;;13.60;89.50;;;;;;5094220;28;20042;-57
2021/06/13 01:46:20;;;;;;;;;;;13.40;90.30;;;;;;5094273;28;20453;-56
2021/06/13 01:49:05;;;;;;;15.65;6.88;;;13.70;90.10;;;;;;5093754;28;19915;-60
2021/06/13 01:51:49;;;;;;;;;;;13.80;89.50;;;;;;5094646;28;20391;-57
2021/06/13 01:54:34;;;;;;;11.07;6.18;;;13.70;89.70;;;;;;5094380;28;19980;-53
2021/06/13 01:57:18;;;;;;;9.48;4.72;;;13.80;89.80;;;;;;5093268;28;20039;-55
2021/06/13 02:00:08;;;;;;;11.40;5.95;;;13.80;89.80;;;;;;5078228;28;20047;-60
2021/06/13 02:02:53;;;;;;;13.10;6.15;;;13.80;90.00;;;;;;5093876;28;20085;-55
2021/06/13 02:05:38;;;;;;;10.38;5.85;;;13.80;89.90;;;;;;5093740;28;20062;-57
2021/06/13 02:08:23;;;;;;;10.60;5.72;;;13.90;89.40;;;;;;5063612;28;20043;-55
2021/06/13 02:11:10;;;;;;;9.90;5.40;;;13.90;89.40;;;;;;5093878;28;20109;-58
2021/06/13 02:13:56;;;;;;;10.45;5.22;;;13.90;89.60;;;;;;5093808;28;20036;-53
2021/06/13 02:16:43;;;;;;;10.77;5.47;;;13.80;89.70;;;;;;5093398;28;20038;-55
2021/06/13 02:19:29;;;;;;;12.65;6.22;;;13.80;89.60;;;;;;5093340;28;20046;-56
2021/06/13 02:22:18;;;;;;;11.45;5.72;;;13.70;90.10;;;;;;5093411;28;20027;-58
2021/06/13 02:25:03;;;;;;;10.63;5.63;;;13.70;89.70;;;;;;5093663;28;20111;-56
2021/06/13 02:27:51;;;;;;;9.25;5.70;;;13.60;90.00;;;;;;5092769;28;20548;-53
2021/06/13 02:30:38;;;;;;;12.20;6.00;;;13.60;90.00;;;;;;5086906;28;20628;-56
2021/06/13 02:33:23;;;;;;;16.65;5.90;;;13.60;90.00;;;;;;5057994;28;20085;-56
2021/06/13 02:36:08;;;;;;;12.77;6.57;;;13.40;90.10;;;;;;5072028;28;20078;-55
2021/06/13 02:38:53;;;;;;;;;;;13.60;90.20;;;;;;5073113;28;20034;-58
2021/06/13 02:41:38;;;;;;;13.57;6.15;;;13.50;90.10;;;;;;5072950;28;20294;-56
2021/06/13 02:44:23;;;;;;;;;;;13.40;90.10;;;;;;5058099;28;20515;-54
2021/06/13 02:47:07;;;;;;;12.52;5.32;;;13.40;90.10;;;;;;5072160;28;20011;-56
2021/06/13 02:49:51;;;;;;;11.47;6.67;;;13.40;90.10;;;;;;5072492;28;20027;-56
2021/06/13 02:52:41;;;;;;;11.37;6.53;;;13.50;89.90;;;;;;5071732;28;20036;-55
2021/06/13 02:55:43;;;;;;;17.08;5.30;;;13.40;89.70;;;;;;5072402;28;20028;-54
2021/06/13 02:58:59;;;;;;;12.98;6.47;;;13.40;90.00;;;;;;5057113;28;20074;-57
2021/06/13 03:01:46;;;;;;;20.17;6.47;;;13.30;90.00;;;;;;5046080;28;20090;-58
2021/06/13 03:04:32;;;;;;;15.10;6.53;;;13.40;90.00;;;;;;5072633;28;20039;-55
2021/06/13 03:07:17;;;;;;;12.38;5.90;;;13.40;89.90;;;;;;5057275;28;20642;-56
2021/06/13 03:10:05;;;;;;;15.60;7.22;;;13.30;90.00;;;;;;5072260;28;20032;-55
2021/06/13 03:12:54;;;;;;;12.82;6.75;;;13.20;90.30;;;;;;5072820;28;20079;-55
2021/06/13 03:15:39;;;;;;;15.82;6.55;;;13.40;89.80;;;;;;5076551;28;20054;-54
2021/06/13 03:18:25;;;;;;;12.00;6.20;;;13.40;89.30;;;;;;5092621;28;20059;-58
2021/06/13 03:21:12;;;;;;;13.70;6.03;;;13.40;89.70;;;;;;5093023;28;20089;-56
2021/06/13 03:23:57;;;;;;;14.32;6.45;;;13.50;89.40;;;;;;5077447;28;20061;-56
2021/06/13 03:26:43;;;;;;;13.88;6.15;;;13.50;89.60;;;;;;5094100;28;20055;-58
2021/06/13 03:29:28;;;;;;;16.67;6.80;;;13.50;89.10;;;;;;5082959;28;20054;-58
2021/06/13 03:32:14;;;;;;;12.77;5.95;;;13.40;89.90;;;;;;5092282;28;20028;-54
2021/06/13 03:34:59;;;;;;;16.70;7.07;;;13.40;89.70;;;;;;5092906;28;20028;-57
2021/06/13 03:37:44;;;;;;;19.35;6.80;;;13.50;89.50;;;;;;5092572;28;20047;-56
2021/06/13 03:40:30;;;;;;;12.35;7.00;;;13.40;90.00;;;;;;5072645;28;20132;-55
2021/06/13 03:43:14;;;;;;;14.85;6.55;;;13.30;90.20;;;;;;5072309;28;20120;-54
2021/06/13 03:46:00;;;;;;;13.23;6.43;;;13.30;90.10;;;;;;5080934;28;20027;-57
2021/06/13 03:48:47;;;;;;;17.30;6.70;;;13.30;90.20;;;;;;5091942;28;20134;-55
2021/06/13 03:51:32;;;;;;;14.90;6.88;;;13.30;90.20;;;;;;5092802;28;20157;-55
2021/06/13 03:54:16;;;;;;;16.15;7.07;;;13.50;89.80;;;;;;5092250;28;20035;-57
2021/06/13 03:57:06;;;;;;;17.75;7.05;;;13.50;90.00;;;;;;5092490;28;20407;-52
2021/06/13 03:59:52;;;;;;;18.35;6.38;;;13.50;89.60;;;;;;5092709;28;20047;-55
2021/06/13 04:02:41;;;;;;;11.70;6.70;;;13.70;89.00;;;;;;5092467;28;20086;-58
2021/06/13 04:05:26;;;;;;;19.08;6.75;;;13.70;89.30;;;;;;5092269;28;20043;-56
2021/06/13 04:08:13;;;;;;;15.07;6.68;;;13.60;89.60;;;;;;5091950;28;20493;-55
2021/06/13 04:10:57;;;;;;;18.23;7.15;;;13.60;89.60;;;;;;5092574;28;20034;-52
2021/06/13 04:13:42;;;;;;;15.05;6.60;;;13.60;89.60;;;;;;5092508;28;20526;-54
2021/06/13 04:16:26;;;;;;;14.80;7.60;;;13.50;89.70;;;;;;5092595;28;20067;-56
2021/06/13 04:19:11;;;;;;;13.25;6.97;;;13.50;90.20;;;;;;5092041;28;20089;-57
2021/06/13 04:21:55;;;;;;;19.63;7.80;;;13.40;90.20;;;;;;5096245;28;20066;-52
2021/06/13 04:24:43;;;;;;;16.10;7.18;;;13.40;90.30;;;;;;5095471;28;20043;-57
2021/06/13 04:27:28;;;;;;;20.60;7.35;;;13.30;90.80;;;;;;5095177;28;20510;-56
2021/06/13 04:30:13;;;;;;;12.98;7.28;;;13.40;90.60;;;;;;5087842;28;20395;-57
2021/06/13 04:32:57;;;;;;;18.40;8.02;;;13.40;90.60;;;;;;5080097;28;20040;-56
2021/06/13 04:35:41;;;;;;;15.20;7.82;;;13.50;90.50;;;;;;5095637;28;20070;-52
2021/06/13 04:38:25;;;;;;;20.50;8.52;;;13.60;90.20;;;;;;5080215;28;20126;-54
2021/06/13 04:41:10;;;;;;;17.80;8.05;;;13.60;90.40;;;;;;5096004;28;20441;-54
2021/06/13 04:43:54;;;;;;;11.40;7.05;;;13.80;90.10;;;;;;5095790;28;20035;-55
2021/06/13 04:46:38;;;;;;;20.42;7.82;;;13.70;90.10;;;;;;5095638;28;20132;-54
2021/06/13 04:49:22;;;;;;;23.30;7.68;;;13.70;90.10;;;;;;5095212;28;20125;-54
2021/06/13 04:52:09;;;;;;;18.90;7.73;;;13.70;90.20;;;;;;5095005;28;20023;-55
2021/06/13 04:55:14;;;;;;;13.48;7.47;;;13.70;90.20;;;;;;5095223;28;20978;-54
2021/06/13 04:58:07;;;;;;;17.65;8.02;;;13.90;90.00;;;;;;5094811;28;20070;-56
2021/06/13 05:00:51;;;;;;;18.38;7.38;;;13.70;90.10;;;;;;5079550;28;20070;-55
2021/06/13 05:03:35;;;;;;;16.27;7.63;;;13.60;90.10;;;;;;5094809;28;20026;-60
2021/06/13 05:06:20;;;;;;;15.13;6.68;;;13.70;90.10;;;;;;5094850;28;20106;-57
2021/06/13 05:09:04;;;;;;;;;;;13.70;90.20;;;;;;5095238;28;20035;-55
2021/06/13 05:11:49;;;;;;;16.60;7.68;;;13.70;90.10;;;;;;5094717;28;19958;-56
2021/06/13 05:14:33;;;;;;;20.30;7.33;;;13.80;89.90;;;;;;5094707;28;20031;-58
2021/06/13 05:17:17;;;;;;;22.88;7.75;;;13.80;89.90;;;;;;5094670;28;20097;-57
2021/06/13 05:20:01;;;;;;;18.67;6.85;;;13.80;89.70;;;;;;5094469;28;20030;-59
2021/06/13 05:22:49;;;;;;;17.23;7.90;;;13.80;90.00;;;;;;5095140;28;20042;-57
2021/06/13 05:25:38;;;;;;;16.73;7.32;;;13.80;90.00;;;;;;5079148;28;20027;-57
2021/06/13 05:28:23;;;;;;;13.85;7.07;;;13.90;89.70;;;;;;5075767;28;20040;-57
2021/06/13 05:31:08;;;;;;;16.33;6.63;;;13.80;89.60;;;;;;5090646;28;20584;-56
2021/06/13 05:33:52;;;;;;;13.07;6.00;;;13.70;89.90;;;;;;5095943;28;20041;-53
2021/06/13 05:36:37;;;;;;;14.15;6.78;;;13.80;89.80;;;;;;5094977;28;20526;-56
2021/06/13 05:39:21;;;;;;;12.03;7.40;;;13.90;89.10;;;;;;5094677;28;20058;-55
2021/06/13 05:42:05;;;;;;;20.02;6.85;;;13.90;89.20;;;;;;5095384;28;20039;-55
2021/06/13 05:44:49;;;;;;;16.27;8.00;;;14.00;89.10;;;;;;5094780;28;20433;-55
2021/06/13 05:47:33;;;;;;;14.27;6.83;;;14.20;88.80;;;;;;5093368;28;20815;-55
2021/06/13 05:50:17;;;;;;;11.93;6.68;;;14.20;88.50;;;;;;5094873;28;20502;-56
2021/06/13 05:53:03;;;;;;;17.98;7.18;;;14.30;87.30;;;;;;5095096;28;20513;-55
2021/06/13 05:55:47;;;;;;;;;;;14.30;87.50;;;;;;5094340;28;20039;-58
2021/06/13 05:58:31;;;;;;;14.75;6.53;;;14.20;87.30;;;;;;5093284;28;19958;-58
2021/06/13 06:01:15;;;;;;;16.83;6.50;;;14.40;87.20;;;;;;5100028;28;20448;-53
2021/06/13 06:03:59;;;;;;;16.50;6.35;;;14.40;85.80;;;;;;5114130;28;20517;-55
2021/06/13 06:06:43;;;;;;;8.90;5.60;;;14.40;85.70;;;;;;5113919;28;20043;-56
2021/06/13 06:09:27;;;;;;;14.87;6.53;;;14.20;86.10;;;;;;5114147;28;20525;-58
2021/06/13 06:12:12;;;;;;;13.90;7.22;;;14.20;86.30;;;;;;5114615;28;20093;-58
2021/06/13 06:14:57;;;;;;;12.80;6.88;;;14.00;86.80;;;;;;5114041;28;20683;-57
2021/06/13 06:17:42;;;;;;;16.40;7.47;;;14.00;86.90;;;;;;5113915;28;20081;-57
2021/06/13 06:20:28;;;;;;;14.60;6.50;;;14.00;87.50;;;;;;5114800;28;20047;-56
2021/06/13 06:23:13;;;;;;;16.98;6.78;;;14.10;87.30;;;;;;5114085;28;20039;-56
2021/06/13 06:25:57;;;;;;;12.30;6.23;;;14.20;87.10;;;;;;5100029;28;20109;-56
2021/06/13 06:28:41;;;;;;;13.23;6.60;;;14.30;86.60;;;;;;5087683;28;20063;-51
2021/06/13 06:31:25;;;;;;;15.52;6.82;;;14.30;86.10;;;;;;5102764;28;20062;-56
2021/06/13 06:34:09;;;;;;;13.60;6.45;;;14.50;85.80;;;;;;5109436;28;20055;-55
2021/06/13 06:36:53;;;;;;;11.87;6.37;;;14.60;84.70;;;;;;5077904;28;20097;-59
2021/06/13 06:39:37;;;;;;;14.90;6.15;;;14.50;84.50;;;;;;5093540;28;20317;-52
2021/06/13 06:42:21;;;;;;;16.98;6.80;;;14.50;84.00;;;;;;5093552;28;20038;-55
2021/06/13 06:45:08;;;;;;;11.90;6.10;;;14.60;83.90;;;;;;5092264;28;20427;-58
2021/06/13 06:47:52;;;;;;;20.88;6.45;;;14.60;83.30;;;;;;5092330;28;20076;-57
2021/06/13 06:50:36;;;;;;;13.70;5.50;;;14.60;82.90;;;;;;5093546;28;20054;-55
2021/06/13 06:53:20;;;;;;;15.57;5.60;;;14.50;83.10;;;;;;5092986;28;20043;-54
2021/06/13 06:56:04;;;;;;;9.93;5.63;;;14.50;83.40;;;;;;5093044;28;20099;-56
2021/06/13 06:58:48;;;;;;;13.30;6.22;;;14.50;83.40;;;;;;5093106;28;20089;-57
2021/06/13 07:01:32;;;;;;;12.43;5.47;;;14.60;82.90;;;;;;5085153;28;20102;-59
2021/06/13 07:04:16;;;;;;;11.00;5.68;;;14.60;83.30;;;;;;5085219;28;20055;-56
2021/06/13 07:07:01;;;;;;;11.63;6.00;;;14.60;83.20;;;;;;5092319;28;20154;-57
2021/06/13 07:09:44;;;;;;;14.07;5.65;;;14.60;82.80;;;;;;5093020;28;20035;-58
2021/06/13 07:12:29;;;;;;;13.75;5.18;;;14.70;83.30;;;;;;5092898;28;20093;-54
2021/06/13 07:15:14;;;;;;;12.15;5.40;;;14.80;82.40;;;;;;5092827;28;20027;-53
2021/06/13 07:17:59;;;;;;;;;;;15.00;82.00;;;;;;5093513;28;20039;-56
2021/06/13 07:20:43;;;;;;;13.48;6.10;;;15.00;81.30;;;;;;5092619;28;20278;-57
2021/06/13 07:23:27;;;;;;;11.02;5.63;;;15.10;81.50;;;;;;5092625;28;20548;-54
2021/06/13 07:26:11;;;;;;;14.90;5.47;;;15.30;81.50;;;;;;5093024;28;20522;-58
2021/06/13 07:28:55;;;;;;;10.02;5.15;;;15.40;80.30;;;;;;5079624;28;20055;-56
2021/06/13 07:31:40;;;;;;;13.73;5.50;;;15.40;79.30;;;;;;5086018;28;20120;-58
2021/06/13 07:34:24;;;;;;;10.52;4.80;;;15.50;79.70;;;;;;5095277;28;20046;-53
2021/06/13 07:37:08;;;;;;;13.00;4.80;;;15.50;79.20;;;;;;5066207;28;20483;-55
2021/06/13 07:39:52;;;;;;;13.47;5.60;;;15.50;78.30;;;;;;5073269;28;20437;-57
2021/06/13 07:42:36;;;;;;;8.18;5.20;;;15.50;79.20;;;;;;5074480;28;20776;-55
2021/06/13 07:45:21;;;;;;;10.85;5.47;;;15.50;79.30;;;;;;5074239;28;20051;-55
2021/06/13 07:48:06;;;;;;;;;;;15.70;78.60;;;;;;5072875;28;20040;-58
2021/06/13 07:50:51;;;;;;;12.73;5.97;;;15.50;78.10;;;;;;5080221;28;20413;-50
2021/06/13 07:53:36;;;;;;;18.92;5.82;;;15.40;78.20;;;;;;5073205;28;20074;-53
2021/06/13 07:56:20;;;;;;;13.63;4.90;;;15.40;78.70;;;;;;5084386;28;20076;-57
2021/06/13 07:59:04;;;;;;;11.60;5.15;;;15.40;78.10;;;;;;5084801;28;20032;-54
2021/06/13 08:01:48;;;;;;;8.65;4.78;;;15.50;78.20;;;;;;5084206;28;20047;-58
2021/06/13 08:04:36;;;;;;;10.33;4.63;;;15.60;78.80;;;;;;5075374;28;20052;-58
2021/06/13 08:07:20;;;;;;;11.40;4.10;;;15.70;74.90;;;;;;5074671;28;20407;-53
2021/06/13 08:10:07;;;;;;;11.23;4.75;;;15.70;74.30;;;;;;5079360;28;20043;-57
2021/06/13 08:12:52;;;;;;;8.23;4.55;;;15.80;74.20;;;;;;5064449;28;20098;-56
2021/06/13 08:15:36;;;;;;;9.75;4.45;;;15.70;75.40;;;;;;5091168;28;20084;-55
2021/06/13 08:18:20;;;;;;;10.98;4.72;;;15.60;74.30;;;;;;5079304;28;20695;-60
2021/06/13 08:21:04;;;;;;;11.55;5.68;;;15.40;75.50;;;;;;5096170;28;20077;-59
2021/06/13 08:23:49;;;;;;;13.27;4.75;;;15.60;75.20;;;;;;5087770;28;20097;-58
2021/06/13 08:26:35;;;;;;;7.13;4.10;;;15.50;75.80;;;;;;5076029;28;20023;-55
2021/06/13 08:29:19;;;;;;;12.18;4.93;;;15.40;76.60;;;;;;5077969;28;20090;-55
2021/06/13 08:32:03;;;;;;;12.52;5.18;;;15.40;75.80;;;;;;5066108;28;20035;-55
2021/06/13 08:34:48;;;;;;;;;;;15.40;76.10;;;;;;5075766;28;20098;-53
2021/06/13 08:37:33;;;;;;;9.55;4.32;;;15.30;76.50;;;;;;5074550;28;20384;-54
2021/06/13 08:40:18;;;;;;;6.68;4.38;;;15.50;74.90;;;;;;5091528;28;20126;-55
2021/06/13 08:43:02;;;;;;;12.40;4.65;;;15.50;75.10;;;;;;5096767;28;20617;-56
2021/06/13 08:45:50;;;;;;;11.40;4.80;;;15.50;76.10;;;;;;5096817;28;20127;-54
2021/06/13 08:48:36;;;;;;;13.77;4.88;;;15.60;75.10;;;;;;5094538;28;20102;-52
2021/06/13 08:51:21;;;;;;;15.32;4.85;;;15.60;75.30;;;;;;5093680;28;20063;-54
2021/06/13 08:54:05;;;;;;;10.45;5.00;;;15.70;74.60;;;;;;5078718;28;20027;-59
2021/06/13 08:56:49;;;;;;;8.07;4.53;;;15.70;75.80;;;;;;5086927;28;20042;-58
2021/06/13 08:59:33;;;;;;;8.90;4.53;;;15.80;75.60;;;;;;5094443;28;20114;-55
2021/06/13 09:02:18;;;;;;;9.80;4.80;;;15.70;75.90;;;;;;5095258;28;20031;-57
2021/06/13 09:05:02;;;;;;;10.95;5.55;;;15.90;75.20;;;;;;5079772;28;20042;-53
2021/06/13 09:07:59;;;;;;;8.95;5.82;;;15.90;74.80;;;;;;5094531;28;20067;-57
2021/06/13 09:10:46;;;;;;;10.10;4.28;;;15.90;75.70;;;;;;5079014;28;20438;-55
2021/06/13 09:13:32;;;;;;;10.20;4.93;;;15.90;74.40;;;;;;5095142;28;20201;-56
2021/06/13 09:16:16;;;;;;;12.38;4.57;;;16.00;74.00;;;;;;5079670;28;20035;-54
2021/06/13 09:19:03;;;;;;;9.23;4.40;;;16.20;73.20;;;;;;5094606;28;20039;-53
2021/06/13 09:21:48;;;;;;;7.82;3.67;;;16.40;72.00;;;;;;5094685;28;20070;-55
2021/06/13 09:24:32;;;;;;;9.43;4.65;;;16.40;70.40;;;;;;5095312;28;20031;-55
2021/06/13 09:27:16;;;;;;;8.63;3.80;;;16.40;69.70;;;;;;5074152;28;20036;-54
2021/06/13 09:30:00;;;;;;;7.68;4.22;;;16.60;69.50;;;;;;5078386;28;20506;-52
2021/06/13 09:33:13;;;;;;;8.38;3.88;;;16.70;69.30;;;;;;5095276;28;20092;-54
2021/06/13 09:36:00;;;;;;;8.82;3.88;;;17.00;67.90;;;;;;5076561;28;20206;-56
2021/06/13 09:38:46;;;;;;;11.27;4.35;;;17.20;67.50;;;;;;5074688;28;20111;-57
2021/06/13 09:41:32;;;;;;;8.73;4.10;;;16.90;68.10;;;;;;5074914;28;20035;-57
2021/06/13 09:44:18;;;;;;;11.52;4.30;;;16.80;65.70;;;;;;5074405;28;20078;-57
2021/06/13 09:47:03;;;;;;;12.20;5.22;;;16.60;67.70;;;;;;5074721;28;20035;-54
2021/06/13 09:49:47;;;;;;;7.20;3.65;;;16.70;67.30;;;;;;5073593;28;20105;-55
2021/06/13 09:52:31;;;;;;;12.50;4.53;;;16.90;67.50;;;;;;5073934;28;20039;-58
2021/06/13 09:55:17;;;;;;;8.07;3.90;;;16.90;68.10;;;;;;5071352;28;20065;-55
2021/06/13 09:58:05;;;;;;;8.77;4.53;;;17.00;67.70;;;;;;5094977;28;20058;-54
2021/06/13 10:00:49;;;;;;;7.72;4.03;;;16.70;68.90;;;;;;5079605;28;20085;-59
2021/06/13 10:03:37;;;;;;;9.13;4.18;;;16.90;68.80;;;;;;5079518;28;20050;-58
2021/06/13 10:06:21;;;;;;;9.23;4.00;;;17.10;67.50;;;;;;5086058;28;20102;-56
2021/06/13 10:09:07;;;;;;;11.40;4.85;;;17.10;67.70;;;;;;5079369;28;20067;-60
2021/06/13 10:12:05;;;;;;;11.10;4.65;;;17.10;66.10;;;;;;5075348;28;20039;-56
2021/06/13 10:14:50;;;;;;;8.48;3.78;;;16.70;66.80;;;;;;5099486;28;20062;-58
2021/06/13 10:17:35;;;;;;;8.05;4.57;;;16.80;66.10;;;;;;5078756;28;20387;-57
2021/06/13 10:20:25;;;;;;;6.90;4.63;;;16.90;66.50;;;;;;5078546;28;20055;-60
2021/06/13 10:23:10;;;;;;;11.07;4.38;;;16.70;68.10;;;;;;5094131;28;20054;-55
2021/06/13 10:25:55;;;;;;;8.20;4.45;;;16.90;68.30;;;;;;5093696;28;20081;-57
2021/06/13 10:28:40;;;;;;;9.90;4.47;;;16.70;67.20;;;;;;5089088;28;20491;-57
2021/06/13 10:31:24;;;;;;;8.27;4.18;;;16.70;67.90;;;;;;5087786;28;20051;-55
2021/06/13 10:34:09;;;;;;;7.90;3.97;;;16.90;67.90;;;;;;5091646;28;20125;-55
2021/06/13 10:36:55;;;;;;;7.85;3.75;;;16.70;68.40;;;;;;5096397;28;20050;-56
2021/06/13 10:39:39;;;;;;;9.57;3.92;;;16.90;68.20;;;;;;5083055;28;20078;-55
2021/06/13 10:42:23;;;;;;;9.18;4.53;;;16.90;68.30;;;;;;5094435;28;20112;-56
2021/06/13 10:45:09;;;;;;;9.25;4.30;;;17.00;68.60;;;;;;5088303;28;20595;-58
2021/06/13 10:48:07;;;;;;;6.10;3.85;;;17.00;68.60;;;;;;5090966;28;20043;-55
2021/06/13 10:50:52;;;;;;;10.60;4.68;;;17.00;67.10;;;;;;5073490;28;20056;-58
2021/06/13 10:53:36;;;;;;;8.35;4.28;;;16.80;68.30;;;;;;5072936;28;20063;-59
2021/06/13 10:56:25;;;;;;;8.52;4.90;;;16.80;68.60;;;;;;5072541;28;20039;-59
2021/06/13 10:59:15;;;;;;;8.30;4.40;;;16.70;68.10;;;;;;5072843;28;20703;-55
2021/06/13 11:02:11;;;;;;;10.52;4.45;;;16.80;67.70;;;;;;5072910;28;20040;-52
2021/06/13 11:05:01;;;;;;;9.45;5.35;;;16.80;67.60;;;;;;5073378;28;20047;-56
2021/06/13 11:07:52;;;;;;;11.25;4.55;;;17.00;67.90;;;;;;5072852;28;20027;-56
2021/06/13 11:10:36;;;;;;;7.55;4.45;;;17.00;66.60;;;;;;5073183;28;20553;-57
2021/06/13 11:13:24;;;;;;;10.98;5.13;;;17.10;66.60;;;;;;5074499;28;20502;-54
2021/06/13 11:16:12;;;;;;;11.80;4.90;;;17.30;66.80;;;;;;5073833;28;20507;-56
2021/06/13 11:19:28;;;;;;;10.88;4.95;;;17.20;66.70;;;;;;5072807;28;20423;-59
2021/06/13 11:22:16;;;;;;;12.48;5.72;;;17.20;66.70;;;;;;5073268;28;20043;-58
2021/06/13 11:25:17;;;;;;;10.70;4.70;;;17.50;66.90;;;;;;5071179;28;20553;-60
2021/06/13 11:28:15;;;;;;;8.77;4.40;;;17.60;66.50;;;;;;5091457;28;20502;-56
2021/06/13 11:31:08;;;;;;;11.05;4.70;;;17.50;66.20;;;;;;5079400;28;20082;-56
2021/06/13 11:33:54;;;;;;;9.70;4.60;;;17.50;66.40;;;;;;5095059;28;20031;-58
2021/06/13 11:36:42;;;;;;;10.70;5.30;;;17.60;66.40;;;;;;5094993;28;20050;-55
2021/06/13 11:39:27;;;;;;;7.07;4.10;;;17.60;65.90;;;;;;5093997;28;20077;-57
2021/06/13 11:42:13;;;;;;;8.85;4.82;;;17.50;65.70;;;;;;5093269;28;20117;-58
2021/06/13 11:44:57;;;;;;;9.13;5.15;;;17.40;66.50;;;;;;5093022;28;20097;-59
2021/06/13 11:47:41;;;;;;;10.68;5.10;;;17.50;66.10;;;;;;5078528;28;20035;-58
2021/06/13 11:50:34;;;;;;;9.80;4.95;;;17.60;66.80;;;;;;5093437;28;20564;-57
2021/06/13 11:53:19;;;;;;;13.80;5.45;;;17.60;66.30;;;;;;5094722;28;20062;-57
2021/06/13 11:56:04;;;;;;;11.68;4.75;;;17.60;66.20;;;;;;5092320;28;20035;-59
2021/06/13 11:59:17;;;;;;;10.95;5.03;;;17.50;66.50;;;;;;5092800;28;20051;-54
2021/06/13 12:02:05;;;;;;;10.50;5.00;;;17.90;66.30;;;;;;5083859;28;20103;-56
2021/06/13 12:04:49;;;;;;;11.27;5.60;;;18.00;66.00;;;;;;5092278;28;20079;-56
2021/06/13 12:07:40;;;;;;;;;;;17.80;65.10;;;;;;5092583;28;20182;-52
2021/06/13 12:10:29;;;;;;;11.07;4.82;;;17.80;66.60;;;;;;5092283;28;19966;-52
2021/06/13 12:13:14;;;;;;;8.32;4.90;;;17.80;66.00;;;;;;5076802;28;20074;-56
2021/06/13 12:16:14;;;;;;;10.85;5.35;;;17.90;66.40;;;;;;5092191;28;20071;-56
2021/06/13 12:19:00;;;;;;;7.65;5.05;;;17.90;66.80;;;;;;5092387;28;20119;-57
2021/06/13 12:21:44;;;;;;;11.75;5.07;;;17.90;65.60;;;;;;5093161;28;20036;-59
2021/06/13 12:27:25;;;;;;;9.05;4.95;;;18.10;66.40;;;;;;5071441;28;20085;-52
2021/06/13 12:30:20;;;;;;;10.32;4.38;;;18.30;64.60;;;;;;5068679;28;20071;-53
2021/06/13 12:33:13;;;;;;;12.55;5.53;;;18.20;65.60;;;;;;5072358;28;20608;-54
2021/06/13 12:35:58;;;;;;;11.02;4.85;;;18.30;66.20;;;;;;5072165;28;20039;-53
2021/06/13 12:38:42;;;;;;;9.00;5.00;;;18.20;65.20;;;;;;5071550;28;20522;-55
2021/06/13 12:41:26;;;;;;;8.40;5.05;;;18.30;64.00;;;;;;5071923;28;20060;-58
2021/06/13 12:44:13;;;;;;;6.68;4.35;;;18.60;64.60;;;;;;5076244;28;20039;-51
2021/06/13 12:46:58;;;;;;;8.30;5.00;;;18.50;64.30;;;;;;5075165;28;20097;-54
2021/06/13 12:49:45;;;;;;;12.80;5.45;;;18.50;64.30;;;;;;5092046;28;20459;-53
2021/06/13 12:52:30;;;;;;;9.48;5.05;;;18.20;64.60;;;;;;5095660;28;20085;-55
2021/06/13 12:55:14;;;;;;;9.95;5.05;;;18.30;64.50;;;;;;5097055;28;20031;-52
2021/06/13 12:57:58;;;;;;;10.75;4.80;;;18.30;64.40;;;;;;5095666;28;20509;-56
2021/06/13 13:00:44;;;;;;;8.75;4.97;;;18.30;64.50;;;;;;5096554;28;20548;-56
2021/06/13 13:03:38;;;;;;;9.23;5.00;;;18.10;65.50;;;;;;5095877;28;20482;-52
2021/06/13 13:06:22;;;;;;;11.73;4.53;;;18.30;65.60;;;;;;5095911;28;20047;-56
2021/06/13 13:09:06;;;;;;;9.93;4.82;;;18.60;64.20;;;;;;5096215;28;20565;-56
2021/06/13 13:11:51;;;;;;;8.15;4.90;;;19.00;63.90;;;;;;5094806;28;20084;-54
2021/06/13 13:14:38;;;;;;;11.70;5.40;;;18.70;64.70;;;;;;5087999;28;20043;-60
2021/06/13 13:17:26;;;;;;;10.45;5.75;;;18.70;64.30;;;;;;5093992;28;20031;-55
2021/06/13 13:20:23;;;;;;;9.80;4.93;;;18.90;64.50;;;;;;5073390;28;20460;-54
2021/06/13 13:23:09;;;;;;;13.55;5.63;;;18.70;64.40;;;;;;5061645;28;20036;-57
2021/06/13 13:26:01;;;;;;;7.40;4.70;;;18.70;64.70;;;;;;5085227;28;20447;-60
2021/06/13 13:28:51;;;;;;;10.45;4.50;;;18.90;64.40;;;;;;5086746;28;20101;-57
2021/06/13 13:31:35;;;;;;;12.23;4.68;;;19.20;63.80;;;;;;5073832;28;20070;-56
2021/06/13 13:34:33;;;;;;;9.75;5.20;;;19.30;62.90;;;;;;5079701;28;20370;-56
2021/06/13 13:37:18;;;;;;;7.10;5.30;;;19.20;63.30;;;;;;5093446;28;20043;-54
2021/06/13 13:40:11;;;;;;;11.35;5.20;;;19.30;63.30;;;;;;5093315;28;20039;-51
2021/06/13 13:42:56;;;;;;;8.18;4.95;;;19.50;63.00;;;;;;5093523;28;20055;-52
2021/06/13 13:45:41;;;;;;;11.23;5.13;;;19.40;63.50;;;;;;5093571;28;20027;-54
2021/06/13 13:48:28;;;;;;;8.93;4.68;;;19.40;62.50;;;;;;5092686;28;20043;-53
2021/06/13 13:51:12;;;;;;;8.68;5.07;;;19.30;62.80;;;;;;5078234;28;20023;-54
2021/06/13 13:53:56;;;;;;;10.60;5.22;;;19.20;62.80;;;;;;5093202;28;20146;-55
2021/06/13 13:56:49;;;;;;;10.88;5.03;;;19.30;62.90;;;;;;5093442;28;20047;-57
2021/06/13 13:59:35;;;;;;;7.90;4.60;;;19.40;63.60;;;;;;5093275;28;20114;-59
2021/06/13 14:02:19;;;;;;;9.23;4.80;;;19.50;63.00;;;;;;5093394;28;20039;-59
2021/06/13 14:05:03;;;;;;;11.82;4.78;;;19.40;62.30;;;;;;5093086;28;20043;-56
2021/06/13 14:07:47;;;;;;;10.98;4.93;;;19.40;62.50;;;;;;5085203;28;20066;-57
2021/06/13 14:10:31;;;;;;;9.20;5.00;;;19.60;61.70;;;;;;5072848;28;20043;-54
2021/06/13 14:13:15;;;;;;;8.35;5.00;;;19.60;62.30;;;;;;5072499;28;20434;-58
2021/06/13 14:15:59;;;;;;;8.75;4.72;;;20.20;62.00;;;;;;5072729;28;20043;-55
2021/06/13 14:18:45;;;;;;;8.48;4.45;;;19.90;60.10;;;;;;5072339;28;20530;-56
2021/06/13 14:21:30;;;;;;;8.73;5.88;;;19.50;61.40;;;;;;5072332;28;20475;-54
2021/06/13 14:24:14;;;;;;;7.07;4.85;;;19.70;61.20;;;;;;5071249;28;20039;-55
2021/06/13 14:26:58;;;;;;;15.00;4.93;;;19.70;62.10;;;;;;5090418;28;20085;-56